Time;durP1;ratioP1;P1;durP2;ratioP2;P2;SDS_P1;SDS_P2;PMS_P1;PMS_P2;Temp;Humidity;BMP_temperature;BMP_pressure;BME280_temperature;BME280_humidity;BME280_pressure;Samples;Min_cycle;Max_cycle;Signal;HPM_P1;HPM_P2
2023/10/14 00:01:03;;;;;;;14.57;7.73;;;16.90;99.90;;;;;;5093499;28;20414;-50
2023/10/14 00:03:33;;;;;;;6.53;2.23;;;16.80;99.90;;;;;;5093593;28;20446;-49
2023/10/14 00:06:09;;;;;;;8.90;1.70;;;16.20;1.00;;;;;;5093369;28;20940;-49
2023/10/14 00:08:35;;;;;;;3.03;1.43;;;15.60;1.00;;;;;;5093566;28;20402;-49
2023/10/14 00:11:04;;;;;;;3.43;1.40;;;15.10;1.00;;;;;;5093315;28;20908;-50
2023/10/14 00:13:40;;;;;;;3.10;1.00;;;14.80;1.00;;;;;;5093166;28;20427;-48
2023/10/14 00:16:10;;;;;;;4.97;1.10;;;14.50;1.00;;;;;;5093330;28;20458;-49
2023/10/14 00:18:42;;;;;;;2.27;1.23;;;14.20;51.70;;;;;;5093370;28;20421;-49
2023/10/14 00:21:10;;;;;;;3.10;1.03;;;14.10;98.80;;;;;;5093392;28;20434;-49
2023/10/14 00:23:36;;;;;;;4.83;1.37;;;13.90;99.90;;;;;;5097002;28;20411;-49
2023/10/14 00:26:03;;;;;;;2.57;1.20;;;13.80;99.90;;;;;;5096921;28;20907;-49
2023/10/14 00:28:28;;;;;;;7.47;1.43;;;13.70;99.90;;;;;;5096968;28;20182;-49
2023/10/14 00:30:55;;;;;;;5.50;1.60;;;13.60;99.90;;;;;;5097271;28;20750;-49
2023/10/14 00:33:21;;;;;;;6.67;1.20;;;13.50;99.90;;;;;;5096971;28;20186;-50
2023/10/14 00:35:47;;;;;;;5.80;1.40;;;13.40;99.90;;;;;;5097089;28;20467;-49
2023/10/14 00:38:18;;;;;;;5.33;1.70;;;13.50;99.90;;;;;;5096587;28;20898;-49
2023/10/14 00:40:46;;;;;;;9.90;2.87;;;13.40;99.90;;;;;;5096693;28;20494;-49
2023/10/14 00:43:11;;;;;;;9.37;2.37;;;13.40;99.90;;;;;;5096491;28;20188;-49
2023/10/14 00:45:43;;;;;;;5.90;1.90;;;13.30;99.90;;;;;;5096822;28;20507;-50
2023/10/14 00:48:13;;;;;;;4.87;1.87;;;13.30;99.90;;;;;;5096662;28;20173;-49
2023/10/14 00:50:41;;;;;;;6.43;1.60;;;13.20;99.90;;;;;;5096688;28;20400;-48
2023/10/14 00:53:08;;;;;;;3.80;1.67;;;13.20;99.90;;;;;;5097128;28;20403;-49
2023/10/14 00:55:52;;;;;;;6.77;1.67;;;13.20;99.90;;;;;;5096503;28;20415;-48
2023/10/14 00:58:24;;;;;;;6.93;1.90;;;13.20;99.90;;;;;;5096673;28;20448;-47
2023/10/14 01:00:59;;;;;;;8.77;1.93;;;13.20;99.90;;;;;;5096869;28;20407;-50
2023/10/14 01:03:33;;;;;;;4.77;1.53;;;13.20;99.90;;;;;;5096448;28;20887;-49
2023/10/14 01:08:53;;;;;;;5.43;2.10;;;13.20;99.90;;;;;;5087640;28;20424;-49
2023/10/14 01:11:23;;;;;;;3.70;1.60;;;13.30;99.90;;;;;;5096499;28;20407;-49
2023/10/14 01:13:51;;;;;;;9.70;1.90;;;13.20;99.90;;;;;;5095982;28;20449;-49
2023/10/14 01:16:16;;;;;;;9.17;1.83;;;13.20;99.90;;;;;;5096267;28;20511;-48
2023/10/14 01:18:46;;;;;;;8.40;1.80;;;13.20;99.90;;;;;;5096396;28;20423;-49
2023/10/14 01:21:12;;;;;;;4.37;1.73;;;13.20;99.90;;;;;;5096453;28;20268;-48
2023/10/14 01:23:40;;;;;;;8.30;1.93;;;13.20;99.90;;;;;;5095879;28;20462;-53
2023/10/14 01:26:06;;;;;;;8.97;1.63;;;13.20;99.90;;;;;;5095592;28;20244;-49
2023/10/14 01:28:32;;;;;;;14.13;2.43;;;13.20;99.90;;;;;;5096000;28;20411;-49
2023/10/14 01:31:34;;;;;;;4.60;1.40;;;13.20;99.90;;;;;;5096270;28;20472;-49
2023/10/14 01:34:04;;;;;;;7.57;1.93;;;13.20;99.90;;;;;;5095268;28;20430;-49
2023/10/14 01:36:50;;;;;;;10.57;1.80;;;13.20;99.90;;;;;;5095968;28;20561;-48
2023/10/14 01:39:21;;;;;;;10.23;2.10;;;13.20;99.90;;;;;;5095329;28;20412;-48
2023/10/14 01:41:47;;;;;;;11.30;1.90;;;13.20;99.90;;;;;;5094318;28;20876;-48
2023/10/14 01:44:21;;;;;;;10.53;2.77;;;13.20;99.90;;;;;;5095900;28;20540;-49
2023/10/14 01:46:47;;;;;;;8.30;2.00;;;13.20;99.90;;;;;;5095838;28;20165;-49
2023/10/14 01:49:19;;;;;;;9.80;1.90;;;13.20;99.90;;;;;;5095632;28;20458;-49
2023/10/14 01:51:49;;;;;;;8.53;2.00;;;13.20;99.90;;;;;;5095695;28;20415;-48
2023/10/14 01:54:15;;;;;;;11.43;1.87;;;13.20;99.90;;;;;;5095477;28;20757;-49
2023/10/14 01:56:42;;;;;;;17.80;2.40;;;13.30;99.90;;;;;;5095197;28;20563;-49
2023/10/14 01:59:08;;;;;;;14.10;1.73;;;13.30;99.90;;;;;;5095027;28;20419;-48
2023/10/14 02:01:36;;;;;;;12.77;2.23;;;13.30;99.90;;;;;;5095267;28;20515;-49
2023/10/14 02:04:03;;;;;;;8.23;1.87;;;13.30;99.90;;;;;;5095196;28;20930;-49
2023/10/14 02:06:30;;;;;;;9.77;2.00;;;13.30;99.90;;;;;;5095094;28;20432;-49
2023/10/14 02:09:00;;;;;;;8.53;2.60;;;13.30;99.90;;;;;;5095383;28;20429;-50
2023/10/14 02:11:33;;;;;;;6.50;1.40;;;13.20;99.90;;;;;;5095293;28;20415;-50
2023/10/14 02:13:59;;;;;;;14.53;1.90;;;13.20;99.90;;;;;;5094876;28;20506;-49
2023/10/14 02:16:25;;;;;;;6.50;1.50;;;13.20;99.90;;;;;;5094541;28;20532;-50
2023/10/14 02:18:52;;;;;;;6.80;1.60;;;13.20;99.90;;;;;;5094958;28;20423;-50
2023/10/14 02:21:18;;;;;;;6.87;1.70;;;13.10;99.90;;;;;;5094940;28;20186;-50
2023/10/14 02:23:44;;;;;;;4.50;1.30;;;13.00;99.90;;;;;;5095098;28;20912;-50
2023/10/14 02:26:25;;;;;;;11.40;2.20;;;13.10;99.90;;;;;;5094520;28;20482;-50
2023/10/14 02:28:52;;;;;;;5.57;1.50;;;13.10;99.90;;;;;;5094723;28;20442;-50
2023/10/14 02:33:54;;;;;;;8.00;1.57;;;13.10;99.90;;;;;;5094696;28;20403;-50
2023/10/14 02:36:29;;;;;;;9.53;1.93;;;13.00;99.90;;;;;;5094231;28;20587;-50
2023/10/14 02:38:55;;;;;;;10.33;1.70;;;13.00;99.90;;;;;;5095073;28;20478;-50
2023/10/14 02:41:25;;;;;;;5.73;1.80;;;13.00;99.90;;;;;;5094715;28;20498;-50
2023/10/14 02:46:34;;;;;;;7.07;2.00;;;12.90;99.90;;;;;;5093665;28;20894;-49
2023/10/14 02:49:09;;;;;;;4.83;1.53;;;12.80;99.90;;;;;;5094664;28;20422;-49
2023/10/14 02:51:43;;;;;;;6.37;1.77;;;12.80;99.90;;;;;;5094573;28;20422;-49
2023/10/14 02:54:33;;;;;;;4.47;1.60;;;12.70;99.90;;;;;;5094468;28;20415;-48
2023/10/14 02:57:00;;;;;;;8.03;1.47;;;12.70;99.90;;;;;;5094329;28;20540;-49
2023/10/14 02:59:43;;;;;;;9.03;2.03;;;12.60;99.90;;;;;;5094414;28;20430;-50
2023/10/14 03:02:15;;;;;;;7.23;1.40;;;12.50;99.90;;;;;;5094363;28;20411;-47
2023/10/14 03:07:24;;;;;;;4.17;1.60;;;12.40;99.90;;;;;;5094096;28;20398;-47
2023/10/14 03:09:51;;;;;;;8.87;1.77;;;12.30;99.90;;;;;;5093964;28;20896;-47
2023/10/14 03:12:21;;;;;;;8.80;1.87;;;12.30;99.90;;;;;;5093676;28;20414;-48
2023/10/14 03:14:52;;;;;;;12.40;1.80;;;12.30;99.90;;;;;;5094081;28;20789;-47
2023/10/14 03:17:24;;;;;;;7.23;1.63;;;12.20;99.90;;;;;;5093732;28;21013;-47
2023/10/14 03:19:53;;;;;;;6.20;2.10;;;12.10;99.90;;;;;;5093802;28;20411;-47
2023/10/14 03:22:22;;;;;;;6.63;1.63;;;12.10;99.90;;;;;;5094169;28;20901;-47
2023/10/14 03:24:51;;;;;;;12.73;2.00;;;12.10;99.90;;;;;;5093942;28;20466;-48
2023/10/14 03:27:18;;;;;;;6.70;1.60;;;12.10;99.90;;;;;;5093636;28;20431;-48
2023/10/14 03:29:51;;;;;;;8.83;1.50;;;12.10;99.90;;;;;;5093568;28;20411;-48
2023/10/14 03:32:17;;;;;;;6.17;1.70;;;12.10;99.90;;;;;;5093892;28;20421;-49
2023/10/14 03:34:43;;;;;;;10.83;2.13;;;12.10;99.90;;;;;;5093877;28;20407;-47
2023/10/14 03:37:23;;;;;;;12.33;1.93;;;12.00;99.90;;;;;;5093800;28;20681;-47
2023/10/14 03:40:34;;;;;;;9.30;1.90;;;12.00;99.90;;;;;;5094004;28;20414;-47
2023/10/14 03:42:40;;;;;;;9.00;2.10;;;12.00;99.90;;;;;;5093457;28;20580;-48
2023/10/14 03:45:19;;;;;;;5.33;1.57;;;11.90;99.90;;;;;;5093939;28;20923;-48
2023/10/14 03:47:46;;;;;;;15.83;1.80;;;11.90;99.90;;;;;;5094098;28;20438;-47
2023/10/14 03:50:14;;;;;;;6.90;1.73;;;11.90;99.90;;;;;;5093548;28;20797;-48
2023/10/14 03:52:40;;;;;;;11.27;1.90;;;11.90;99.90;;;;;;5093110;28;20428;-47
2023/10/14 03:55:06;;;;;;;17.27;2.40;;;11.90;99.90;;;;;;5093508;28;20415;-47
2023/10/14 03:57:37;;;;;;;13.30;2.50;;;11.80;99.90;;;;;;5095813;28;20459;-47
2023/10/14 04:00:12;;;;;;;11.33;2.40;;;11.80;99.90;;;;;;5097904;28;20183;-47
2023/10/14 04:02:40;;;;;;;9.80;2.47;;;11.80;99.90;;;;;;5097783;28;20487;-48
2023/10/14 04:05:11;;;;;;;10.53;2.30;;;11.80;99.90;;;;;;5097673;28;20814;-48
2023/10/14 04:07:40;;;;;;;8.23;2.30;;;11.70;99.90;;;;;;5097651;28;20919;-47
2023/10/14 04:10:09;;;;;;;16.83;2.90;;;11.70;99.90;;;;;;5097596;28;20465;-48
2023/10/14 04:12:38;;;;;;;9.27;2.53;;;11.70;99.90;;;;;;5097417;28;20422;-47
2023/10/14 04:17:40;;;;;;;12.87;2.20;;;11.60;99.90;;;;;;5097711;28;20975;-47
2023/10/14 04:22:38;;;;;;;11.07;2.23;;;11.60;99.90;;;;;;5097231;28;20234;-47
2023/10/14 04:30:32;;;;;;;11.97;2.67;;;11.50;99.90;;;;;;5097234;28;20478;-47
2023/10/14 04:35:31;;;;;;;14.73;2.53;;;11.40;99.90;;;;;;5096893;28;20834;-47
2023/10/14 04:37:58;;;;;;;9.13;2.30;;;11.40;99.90;;;;;;5097011;28;20454;-47
2023/10/14 04:45:54;;;;;;;6.73;2.03;;;11.40;99.90;;;;;;5097101;28;20406;-48
2023/10/14 04:48:27;;;;;;;7.97;2.53;;;11.50;99.90;;;;;;5097284;28;20499;-47
2023/10/14 04:50:56;;;;;;;12.93;2.60;;;11.50;99.90;;;;;;5097073;28;20460;-47
2023/10/14 04:53:26;;;;;;;13.63;2.30;;;11.50;99.90;;;;;;5096890;28;20428;-47
2023/10/14 04:55:55;;;;;;;10.07;2.20;;;11.50;99.90;;;;;;5096494;28;20763;-47
2023/10/14 04:58:25;;;;;;;16.77;2.80;;;11.50;99.90;;;;;;5096756;28;20459;-47
2023/10/14 05:00:52;;;;;;;11.23;1.97;;;11.50;99.90;;;;;;5096726;28;20407;-47
2023/10/14 05:03:20;;;;;;;8.10;2.00;;;11.50;99.90;;;;;;5096854;28;20425;-47
2023/10/14 05:06:03;;;;;;;9.97;2.60;;;11.50;99.90;;;;;;5096750;28;20410;-48
2023/10/14 05:08:44;;;;;;;8.33;2.20;;;11.30;99.90;;;;;;5095435;28;20800;-47
2023/10/14 05:11:13;;;;;;;14.83;2.70;;;11.40;99.90;;;;;;5096637;28;20414;-48
2023/10/14 05:13:42;;;;;;;14.10;2.37;;;11.30;99.90;;;;;;5096261;28;20430;-48
2023/10/14 05:16:15;;;;;;;16.17;2.30;;;11.30;99.90;;;;;;5096084;28;20496;-47
2023/10/14 05:18:58;;;;;;;9.00;2.00;;;11.30;99.90;;;;;;5096470;28;20495;-47
2023/10/14 05:21:36;;;;;;;17.67;2.60;;;11.30;99.90;;;;;;5096458;28;20696;-49
2023/10/14 05:24:09;;;;;;;12.63;2.23;;;11.30;99.90;;;;;;5096128;28;20431;-47
2023/10/14 05:26:44;;;;;;;15.73;3.07;;;11.30;99.90;;;;;;5096172;28;20455;-48
2023/10/14 05:29:19;;;;;;;7.90;2.30;;;11.40;99.90;;;;;;5096613;28;20412;-48
2023/10/14 05:31:45;;;;;;;12.03;2.27;;;11.40;99.90;;;;;;5096060;28;20429;-48
2023/10/14 05:34:11;;;;;;;11.03;2.17;;;11.40;99.90;;;;;;5095863;28;20422;-47
2023/10/14 05:36:37;;;;;;;14.87;2.43;;;11.30;99.90;;;;;;5095941;28;20975;-49
2023/10/14 05:39:03;;;;;;;11.57;2.67;;;11.30;99.90;;;;;;5095922;28;20180;-48
2023/10/14 05:41:30;;;;;;;15.40;3.13;;;11.30;99.90;;;;;;5095921;28;20185;-48
2023/10/14 05:43:56;;;;;;;13.30;2.93;;;11.20;99.90;;;;;;5096035;28;20421;-48
2023/10/14 05:46:23;;;;;;;12.87;2.57;;;11.10;87.10;;;;;;5095741;28;20426;-48
2023/10/14 05:48:52;;;;;;;13.73;2.40;;;11.10;84.90;;;;;;5095898;28;20176;-48
2023/10/14 05:51:22;;;;;;;23.07;3.40;;;11.10;84.10;;;;;;5095799;28;20415;-48
2023/10/14 05:53:48;;;;;;;16.63;3.70;;;11.00;73.70;;;;;;5095992;28;20410;-49
2023/10/14 05:56:14;;;;;;;10.37;2.27;;;11.00;89.20;;;;;;5095606;28;20840;-49
2023/10/14 05:58:45;;;;;;;10.93;2.70;;;11.10;63.70;;;;;;5095585;28;20485;-49
2023/10/14 06:01:13;;;;;;;9.80;2.00;;;11.10;48.20;;;;;;5095671;28;20184;-48
2023/10/14 06:03:41;;;;;;;13.43;2.50;;;11.10;28.50;;;;;;5095943;28;20417;-49
2023/10/14 06:06:10;;;;;;;7.73;2.33;;;11.10;46.80;;;;;;5095660;28;20458;-49
2023/10/14 06:08:37;;;;;;;15.53;2.73;;;11.30;47.60;;;;;;5095282;28;20520;-49
2023/10/14 06:11:05;;;;;;;12.00;1.97;;;11.20;48.00;;;;;;5095249;28;20426;-49
2023/10/14 06:13:31;;;;;;;8.73;1.90;;;11.20;11.70;;;;;;5095443;28;20419;-49
2023/10/14 06:16:00;;;;;;;19.13;2.57;;;11.20;1.00;;;;;;5095125;28;20416;-49
2023/10/14 06:18:26;;;;;;;9.70;2.10;;;11.20;1.00;;;;;;5095258;28;20782;-49
2023/10/14 06:20:53;;;;;;;10.17;2.00;;;11.20;1.00;;;;;;5094804;28;20509;-49
2023/10/14 06:23:19;;;;;;;14.87;2.80;;;11.20;1.00;;;;;;5095308;28;20763;-49
2023/10/14 06:25:45;;;;;;;14.20;2.13;;;11.20;1.00;;;;;;5095429;28;20471;-49
2023/10/14 06:28:11;;;;;;;9.17;1.73;;;11.20;1.00;;;;;;5095309;28;20185;-50
2023/10/14 06:30:37;;;;;;;13.90;2.30;;;11.10;1.00;;;;;;5095048;28;20505;-49
2023/10/14 06:33:05;;;;;;;10.17;2.50;;;11.10;1.00;;;;;;5094859;28;20185;-49
2023/10/14 06:35:35;;;;;;;13.87;3.00;;;11.20;1.00;;;;;;5095891;28;20199;-49
2023/10/14 06:38:04;;;;;;;7.13;2.00;;;11.10;1.00;;;;;;5095791;28;20475;-50
2023/10/14 06:40:35;;;;;;;10.70;2.23;;;11.10;1.00;;;;;;5095852;28;20430;-49
2023/10/14 06:43:06;;;;;;;17.07;2.73;;;11.10;1.00;;;;;;5096134;28;20514;-49
2023/10/14 06:45:32;;;;;;;16.03;2.23;;;11.20;99.90;;;;;;5095371;28;20436;-49
2023/10/14 06:47:59;;;;;;;16.43;2.20;;;11.30;99.90;;;;;;5094649;28;20434;-49
2023/10/14 06:50:25;;;;;;;8.73;2.77;;;11.40;99.90;;;;;;5094573;28;20424;-50
2023/10/14 06:53:00;;;;;;;12.23;2.47;;;11.40;1.00;;;;;;5094852;28;20754;-50
2023/10/14 06:55:27;;;;;;;11.10;2.40;;;11.50;1.00;;;;;;5094168;28;20179;-50
2023/10/14 06:57:56;;;;;;;16.00;2.93;;;11.50;99.90;;;;;;5092610;28;20461;-50
2023/10/14 07:00:29;;;;;;;7.50;2.27;;;11.50;99.90;;;;;;5093055;28;20470;-50
2023/10/14 07:02:57;;;;;;;16.63;2.53;;;11.50;99.90;;;;;;5092866;28;20487;-50
2023/10/14 07:05:23;;;;;;;8.57;2.40;;;11.50;99.90;;;;;;5092814;28;20465;-50
2023/10/14 07:07:52;;;;;;;11.00;2.03;;;11.50;99.90;;;;;;5092256;28;20950;-49
2023/10/14 07:10:18;;;;;;;8.93;2.60;;;11.60;58.60;;;;;;5092392;28;20427;-49
2023/10/14 07:12:43;;;;;;;12.83;2.23;;;11.70;1.00;;;;;;5092777;28;20410;-50
2023/10/14 07:15:15;;;;;;;14.97;2.47;;;11.90;99.90;;;;;;5092372;28;20211;-50
2023/10/14 07:17:42;;;;;;;7.30;1.80;;;12.00;99.90;;;;;;5090764;28;20864;-50
2023/10/14 07:20:12;;;;;;;15.70;2.20;;;12.00;99.90;;;;;;5092477;28;20475;-49
2023/10/14 07:22:42;;;;;;;13.73;2.10;;;11.90;99.90;;;;;;5092267;28;20422;-50
2023/10/14 07:25:09;;;;;;;11.17;2.30;;;11.80;99.90;;;;;;5092000;28;20474;-49
2023/10/14 07:27:36;;;;;;;17.80;3.40;;;11.90;99.90;;;;;;5092468;28;20445;-49
2023/10/14 07:30:26;;;;;;;9.53;2.17;;;11.90;99.90;;;;;;5092288;28;20515;-50
2023/10/14 07:32:49;;;;;;;12.93;2.43;;;12.00;99.90;;;;;;5091474;28;20432;-50
2023/10/14 07:35:16;;;;;;;11.77;2.20;;;12.30;1.00;;;;;;5091729;28;20414;-50
2023/10/14 07:37:46;;;;;;;14.43;1.83;;;12.70;99.90;;;;;;5092145;28;20666;-50
2023/10/14 07:40:26;;;;;;;15.03;2.37;;;13.10;1.00;;;;;;5091793;28;20456;-49
2023/10/14 07:42:59;;;;;;;10.57;2.20;;;13.70;1.00;;;;;;5092799;28;20426;-50
2023/10/14 07:45:28;;;;;;;11.63;2.13;;;14.40;99.90;;;;;;5092409;28;20407;-51
2023/10/14 07:47:57;;;;;;;7.27;1.97;;;14.90;27.80;;;;;;5092289;28;20430;-51
2023/10/14 07:50:34;;;;;;;10.07;2.20;;;15.80;11.60;;;;;;5092283;28;20505;-51
2023/10/14 07:53:07;;;;;;;11.83;1.67;;;16.60;1.00;;;;;;5091950;28;20443;-52
2023/10/14 07:55:40;;;;;;;7.40;1.90;;;17.00;1.00;;;;;;5092156;28;20444;-52
2023/10/14 07:58:10;;;;;;;13.30;2.60;;;17.00;1.00;;;;;;5091988;28;20515;-52
2023/10/14 08:00:41;;;;;;;11.37;1.93;;;17.60;1.00;;;;;;5091820;28;20496;-52
2023/10/14 08:03:09;;;;;;;9.70;2.53;;;17.90;1.00;;;;;;5090745;28;20995;-51
2023/10/14 08:05:38;;;;;;;12.13;2.50;;;18.00;1.00;;;;;;5092172;28;20410;-52
2023/10/14 08:08:09;;;;;;;15.43;2.47;;;17.90;1.00;;;;;;5090380;28;20808;-50
2023/10/14 08:10:42;;;;;;;9.23;2.07;;;18.00;1.00;;;;;;5091815;28;20505;-50
2023/10/14 08:13:12;;;;;;;14.50;2.40;;;17.90;1.00;;;;;;5091769;28;20908;-52
2023/10/14 08:15:38;;;;;;;13.53;2.20;;;18.20;1.00;;;;;;5091668;28;20434;-51
2023/10/14 08:18:05;;;;;;;15.13;2.60;;;18.10;1.00;;;;;;5091868;28;20461;-51
2023/10/14 08:20:32;;;;;;;10.30;2.03;;;17.70;1.00;;;;;;5091657;28;20409;-54
2023/10/14 08:22:58;;;;;;;9.43;2.10;;;17.10;1.00;;;;;;5092317;28;20427;-53
2023/10/14 08:25:25;;;;;;;8.73;2.17;;;16.70;1.00;;;;;;5092389;28;20612;-52
2023/10/14 08:27:54;;;;;;;9.20;2.57;;;16.10;1.00;;;;;;5091976;28;20953;-51
2023/10/14 08:30:24;;;;;;;10.67;1.97;;;15.80;1.00;;;;;;5091298;28;20416;-52
2023/10/14 08:32:50;;;;;;;14.90;2.43;;;15.10;1.00;;;;;;5091567;28;20423;-53
2023/10/14 08:35:17;;;;;;;6.87;2.10;;;14.60;1.00;;;;;;5092120;28;20426;-54
2023/10/14 08:37:49;;;;;;;10.43;2.30;;;14.10;1.00;;;;;;5091884;28;20468;-52
2023/10/14 08:40:17;;;;;;;11.37;2.13;;;13.90;1.00;;;;;;5091742;28;20411;-52
2023/10/14 08:42:49;;;;;;;14.30;2.73;;;13.60;1.00;;;;;;5092426;28;20870;-51
2023/10/14 08:45:20;;;;;;;9.93;2.20;;;13.50;1.00;;;;;;5094386;28;20558;-51
2023/10/14 08:47:50;;;;;;;10.97;2.50;;;13.60;1.00;;;;;;5093836;28;20926;-51
2023/10/14 08:50:16;;;;;;;13.50;2.23;;;13.90;1.00;;;;;;5093937;28;20420;-51
2023/10/14 08:52:45;;;;;;;10.43;1.90;;;13.80;1.00;;;;;;5093576;28;20911;-51
2023/10/14 08:55:15;;;;;;;23.80;2.67;;;13.90;1.00;;;;;;5094248;28;20407;-52
2023/10/14 08:57:44;;;;;;;9.97;2.37;;;13.90;1.00;;;;;;5095206;28;20526;-52
2023/10/14 09:00:23;;;;;;;12.30;2.43;;;14.00;1.00;;;;;;5095273;28;20868;-52
2023/10/14 09:02:54;;;;;;;6.47;2.17;;;14.10;1.00;;;;;;5095070;28;20395;-52
2023/10/14 09:05:21;;;;;;;13.73;2.83;;;14.00;1.00;;;;;;5095130;28;21311;-51
2023/10/14 09:07:51;;;;;;;10.83;1.93;;;13.80;1.00;;;;;;5095814;28;20421;-52
2023/10/14 09:10:20;;;;;;;8.27;2.13;;;13.80;1.00;;;;;;5094793;28;20781;-52
2023/10/14 09:12:57;;;;;;;13.10;2.43;;;13.80;1.00;;;;;;5094582;28;20420;-52
2023/10/14 09:15:25;;;;;;;12.60;2.10;;;13.80;1.00;;;;;;5094964;28;20800;-52
2023/10/14 09:17:55;;;;;;;10.53;2.10;;;13.80;1.00;;;;;;5095691;28;20459;-52
2023/10/14 09:20:33;;;;;;;15.03;3.33;;;13.80;1.00;;;;;;5094701;28;20418;-53
2023/10/14 09:23:18;;;;;;;11.53;2.10;;;13.80;1.00;;;;;;5094620;28;20422;-52
2023/10/14 09:25:52;;;;;;;8.10;2.10;;;13.80;1.00;;;;;;5093620;28;20824;-51
2023/10/14 09:28:20;;;;;;;10.97;2.10;;;13.90;1.00;;;;;;5094535;28;20807;-51
2023/10/14 09:30:50;;;;;;;9.63;1.90;;;14.20;1.00;;;;;;5094199;28;20427;-50
2023/10/14 09:33:28;;;;;;;9.27;1.90;;;14.50;1.00;;;;;;5093155;28;20419;-51
2023/10/14 09:36:05;;;;;;;7.87;1.93;;;14.60;1.00;;;;;;5094333;28;20442;-52
2023/10/14 09:38:35;;;;;;;10.67;2.00;;;14.40;1.00;;;;;;5094084;28;20437;-52
2023/10/14 09:41:07;;;;;;;16.00;2.27;;;14.30;1.00;;;;;;5093719;28;20412;-52
2023/10/14 09:43:35;;;;;;;10.43;2.30;;;14.30;1.00;;;;;;5094125;28;20431;-53
2023/10/14 09:46:05;;;;;;;10.83;2.10;;;14.10;1.00;;;;;;5093895;28;20918;-52
2023/10/14 09:48:34;;;;;;;10.43;2.10;;;14.30;1.00;;;;;;5094400;28;20441;-52
2023/10/14 09:51:01;;;;;;;8.23;2.10;;;14.40;1.00;;;;;;5093693;28;20422;-53
2023/10/14 09:53:38;;;;;;;17.53;2.67;;;14.50;1.00;;;;;;5094517;28;20407;-53
2023/10/14 09:56:13;;;;;;;23.67;2.90;;;14.60;1.00;;;;;;5093601;28;20406;-51
2023/10/14 09:58:43;;;;;;;11.97;2.40;;;14.60;1.00;;;;;;5094225;28;20751;-52
2023/10/14 10:01:19;;;;;;;6.47;1.60;;;14.70;1.00;;;;;;5093881;28;20416;-51
2023/10/14 10:04:02;;;;;;;11.33;1.80;;;14.70;1.00;;;;;;5093897;28;20428;-51
2023/10/14 10:06:52;;;;;;;13.07;2.33;;;14.70;1.00;;;;;;5094320;28;20406;-52
2023/10/14 10:09:40;;;;;;;9.90;1.80;;;15.10;1.00;;;;;;5093957;28;20403;-53
2023/10/14 10:12:10;;;;;;;3.23;1.20;;;15.00;1.00;;;;;;5093686;28;20415;-51
2023/10/14 10:14:42;;;;;;;4.73;1.10;;;13.90;1.00;;;;;;5093785;28;20968;-52
2023/10/14 10:17:11;;;;;;;8.17;1.43;;;12.90;1.00;;;;;;5093873;28;20466;-51
2023/10/14 10:20:17;;;;;;;3.10;1.00;;;12.20;1.00;;;;;;5093881;28;20478;-52
2023/10/14 10:22:50;;;;;;;4.37;1.17;;;11.70;1.00;;;;;;5095248;28;20415;-51
2023/10/14 10:25:17;;;;;;;5.50;1.23;;;11.20;1.00;;;;;;5093892;28;20491;-51
2023/10/14 10:27:44;;;;;;;5.60;1.27;;;11.10;1.00;;;;;;5093669;28;20795;-50
2023/10/14 10:30:16;;;;;;;2.73;0.97;;;11.10;1.00;;;;;;5093947;28;20411;-55
2023/10/14 10:32:46;;;;;;;2.43;0.87;;;12.30;1.00;;;;;;5093741;28;20410;-52
2023/10/14 10:35:13;;;;;;;2.43;1.00;;;14.20;1.00;;;;;;5094880;28;20438;-52
2023/10/14 10:37:54;;;;;;;2.63;1.10;;;15.80;1.00;;;;;;5094827;28;20825;-52
2023/10/14 10:40:27;;;;;;;2.33;0.93;;;16.90;1.00;;;;;;5093183;28;20448;-54
2023/10/14 10:42:57;;;;;;;4.37;1.10;;;17.10;1.00;;;;;;5093325;28;20492;-54
2023/10/14 10:45:29;;;;;;;3.60;1.13;;;17.70;1.00;;;;;;5093569;28;20968;-52
2023/10/14 10:48:04;;;;;;;3.43;1.17;;;18.80;1.00;;;;;;5093446;28;20401;-53
2023/10/14 10:50:37;;;;;;;2.40;0.80;;;19.50;1.00;;;;;;5092933;28;20810;-52
2023/10/14 10:53:05;;;;;;;3.00;1.00;;;20.50;1.00;;;;;;5092669;28;20504;-54
2023/10/14 10:55:31;;;;;;;6.63;1.07;;;20.80;1.00;;;;;;5092589;28;20419;-53
2023/10/14 10:58:00;;;;;;;1.17;0.80;;;21.40;1.00;;;;;;5092845;28;20450;-54
2023/10/14 11:00:31;;;;;;;3.17;1.10;;;21.50;1.00;;;;;;5092713;28;20207;-56
2023/10/14 11:03:01;;;;;;;4.13;1.03;;;21.40;1.00;;;;;;5093109;28;20427;-55
2023/10/14 11:05:29;;;;;;;2.53;0.90;;;21.60;1.00;;;;;;5092619;28;20419;-56
2023/10/14 11:07:56;;;;;;;3.33;1.20;;;21.50;1.00;;;;;;5091678;28;20415;-55
2023/10/14 11:10:29;;;;;;;3.97;1.10;;;21.10;1.00;;;;;;5092725;28;20422;-54
2023/10/14 11:12:56;;;;;;;2.70;1.00;;;20.40;1.00;;;;;;5092582;28;20534;-54
2023/10/14 11:15:23;;;;;;;2.13;0.90;;;20.60;1.00;;;;;;5093018;28;20502;-55
2023/10/14 11:17:56;;;;;;;4.50;1.20;;;20.00;1.00;;;;;;5092738;28;20462;-54
2023/10/14 11:20:26;;;;;;;4.03;1.40;;;20.50;1.00;;;;;;5092630;28;20424;-54
2023/10/14 11:22:55;;;;;;;6.67;1.67;;;21.70;1.00;;;;;;5092600;28;20447;-54
2023/10/14 11:25:21;;;;;;;16.27;2.10;;;21.40;1.00;;;;;;5093041;28;20491;-54
2023/10/14 11:27:47;;;;;;;8.20;1.40;;;19.60;1.00;;;;;;5092223;28;20840;-53
2023/10/14 11:30:14;;;;;;;5.87;1.50;;;15.50;1.00;;;;;;5092729;28;20407;-53
2023/10/14 11:32:47;;;;;;;3.63;1.30;;;13.10;1.00;;;;;;5092055;28;20246;-54
2023/10/14 11:35:22;;;;;;;3.90;1.23;;;11.70;1.00;;;;;;5091705;28;20944;-53
2023/10/14 11:37:56;;;;;;;11.77;1.60;;;11.20;1.00;;;;;;5092199;28;20507;-53
2023/10/14 11:40:26;;;;;;;8.27;1.57;;;10.90;1.00;;;;;;5092937;28;20922;-52
2023/10/14 11:42:55;;;;;;;6.17;1.30;;;10.90;1.00;;;;;;5093154;28;20789;-52
2023/10/14 11:45:20;;;;;;;4.20;1.50;;;11.00;99.90;;;;;;5092505;28;20442;-51
2023/10/14 11:47:46;;;;;;;4.90;1.53;;;11.70;1.00;;;;;;5092399;28;20504;-51
2023/10/14 11:50:12;;;;;;;4.13;1.37;;;13.80;3.70;;;;;;5092144;28;20177;-53
2023/10/14 11:52:44;;;;;;;4.53;1.10;;;15.80;1.00;;;;;;5091925;28;20411;-54
2023/10/14 11:55:20;;;;;;;8.43;1.37;;;16.60;1.00;;;;;;5092100;28;20765;-53
2023/10/14 11:57:48;;;;;;;4.03;1.17;;;16.60;1.00;;;;;;5092179;28;20755;-54
2023/10/14 12:00:20;;;;;;;4.07;1.13;;;17.70;1.00;;;;;;5092087;28;20465;-54
2023/10/14 12:02:46;;;;;;;5.30;1.40;;;18.50;1.00;;;;;;5091921;28;20418;-54
2023/10/14 12:05:13;;;;;;;4.00;1.50;;;18.70;1.00;;;;;;5091982;28;20414;-54
2023/10/14 12:07:38;;;;;;;5.23;1.53;;;18.90;1.00;;;;;;5091838;28;20426;-54
2023/10/14 12:10:05;;;;;;;5.10;1.40;;;18.20;1.00;;;;;;5092170;28;20962;-56
2023/10/14 12:12:31;;;;;;;7.53;1.30;;;17.40;1.00;;;;;;5092064;28;20233;-54
2023/10/14 12:14:59;;;;;;;10.20;1.90;;;17.20;1.00;;;;;;5092038;28;20921;-56
2023/10/14 12:17:25;;;;;;;5.30;1.43;;;17.80;1.00;;;;;;5092178;28;20273;-55
2023/10/14 12:19:50;;;;;;;8.00;1.70;;;19.00;1.00;;;;;;5095869;28;20429;-53
2023/10/14 12:22:16;;;;;;;9.30;1.37;;;19.80;1.00;;;;;;5095542;28;20184;-56
2023/10/14 12:24:41;;;;;;;7.10;1.67;;;20.30;1.00;;;;;;5095267;28;20263;-55
2023/10/14 12:27:14;;;;;;;3.40;1.50;;;20.10;1.00;;;;;;5095806;28;20180;-55
2023/10/14 12:29:40;;;;;;;6.60;1.50;;;19.80;1.00;;;;;;5095863;28;20177;-55
2023/10/14 12:32:12;;;;;;;4.60;1.73;;;20.20;1.00;;;;;;5094959;28;20820;-55
2023/10/14 12:34:39;;;;;;;10.00;1.63;;;20.00;1.00;;;;;;5095768;28;20412;-54
2023/10/14 12:37:11;;;;;;;4.90;1.60;;;20.00;1.00;;;;;;5095333;28;20457;-55
2023/10/14 12:39:43;;;;;;;7.50;1.80;;;20.50;1.00;;;;;;5095405;28;20419;-55
2023/10/14 12:42:09;;;;;;;3.50;1.33;;;20.90;1.00;;;;;;5095142;28;20463;-55
2023/10/14 12:44:38;;;;;;;6.13;1.40;;;21.20;1.00;;;;;;5095439;28;20494;-55
2023/10/14 12:47:10;;;;;;;3.73;1.40;;;21.00;99.90;;;;;;5095478;28;20186;-56
2023/10/14 12:49:37;;;;;;;5.93;1.47;;;20.60;99.90;;;;;;5095776;28;20411;-55
2023/10/14 12:52:13;;;;;;;10.63;1.83;;;19.30;99.90;;;;;;5094779;28;20419;-56
2023/10/14 12:54:39;;;;;;;5.60;1.23;;;18.10;1.00;;;;;;5095375;28;20861;-56
2023/10/14 12:57:07;;;;;;;7.23;1.53;;;17.00;1.00;;;;;;5095107;28;20459;-56
2023/10/14 12:59:42;;;;;;;4.13;1.87;;;16.60;1.00;;;;;;5094883;28;20433;-56
2023/10/14 13:02:11;;;;;;;5.73;1.57;;;16.40;1.00;;;;;;5095136;28;20492;-55
2023/10/14 13:04:41;;;;;;;7.63;1.90;;;16.50;1.00;;;;;;5094902;28;20431;-56
2023/10/14 13:07:10;;;;;;;7.97;1.50;;;17.50;1.00;;;;;;5094858;28;20450;-55
2023/10/14 13:09:38;;;;;;;6.03;2.07;;;18.40;1.00;;;;;;5095679;28;20763;-55
2023/10/14 13:12:13;;;;;;;9.53;1.63;;;18.10;1.00;;;;;;5094802;28;20907;-54
2023/10/14 13:14:39;;;;;;;9.67;1.90;;;17.20;1.00;;;;;;5095082;28;20757;-54
2023/10/14 13:17:07;;;;;;;7.23;1.63;;;16.30;1.00;;;;;;5094573;28;20449;-53
2023/10/14 13:19:35;;;;;;;8.00;1.77;;;15.70;1.00;;;;;;5094792;28;20512;-54
2023/10/14 13:22:12;;;;;;;8.33;1.80;;;15.10;1.00;;;;;;5094377;28;20426;-53
2023/10/14 13:24:38;;;;;;;6.90;1.60;;;14.60;1.00;;;;;;5094777;28;20483;-53
2023/10/14 13:27:04;;;;;;;10.87;1.90;;;14.30;1.00;;;;;;5094621;28;20419;-53
2023/10/14 13:29:31;;;;;;;9.00;2.47;;;14.50;1.00;;;;;;5093166;28;20951;-54
2023/10/14 13:31:56;;;;;;;9.17;2.33;;;15.10;1.00;;;;;;5094709;28;20412;-57